Time;durP1;ratioP1;P1;durP2;ratioP2;P2;SDS_P1;SDS_P2;PMS_P1;PMS_P2;Temp;Humidity;BMP_temperature;BMP_pressure;BME280_temperature;BME280_humidity;BME280_pressure;Samples;Min_cycle;Max_cycle;Signal;HPM_P1;HPM_P2
2022/03/19 00:00:00;;;;;;;;;;;;;;;14.31;34.07;101367.22;4467703;32;34932;-80
2022/03/19 00:02:27;;;;;;;;;;;;;;;14.28;34.09;101368.03;4467688;32;33080;-80
2022/03/19 00:04:55;;;;;;;;;;;;;;;14.33;34.03;101370.78;4464251;32;35204;-82
2022/03/19 00:07:22;;;;;;;;;;;;;;;14.14;34.34;101371.00;4466514;32;34531;-83
2022/03/19 00:09:49;;;;;;;;;;;;;;;14.29;34.08;101366.28;4439236;32;34041;-79
2022/03/19 00:12:16;;;;;;;;;;;;;;;14.38;33.97;101371.81;4451769;32;33746;-80
2022/03/19 00:14:44;;;;;;;;;;;;;;;14.23;34.35;101368.69;4451236;32;33770;-80
2022/03/19 00:17:11;;;;;;;;;;;;;;;14.38;34.05;101363.97;4452057;32;34934;-79
2022/03/19 00:19:39;;;;;;;;;;;;;;;14.48;33.77;101358.22;4463974;32;33848;-81
2022/03/19 00:22:06;;;;;;;;;;;;;;;14.65;33.71;101358.78;4467602;32;33530;-81
2022/03/19 00:24:34;;;;;;;;;;;;;;;14.72;33.52;101352.03;4467588;32;34872;-80
2022/03/19 00:27:01;;;;;;;;;;;;;;;14.72;33.57;101359.84;4433901;32;34228;-80
2022/03/19 00:29:28;;;;;;;;;;;;;;;14.78;33.42;101350.50;4463227;32;34176;-80
2022/03/19 00:31:56;;;;;;;;;;;;;;;14.80;33.40;101347.91;4466917;32;33063;-82
2022/03/19 00:34:23;;;;;;;;;;;;;;;14.69;33.64;101352.81;4467655;32;34407;-81
2022/03/19 00:36:50;;;;;;;;;;;;;;;14.81;33.27;101341.84;4466244;32;35133;-81
2022/03/19 00:39:17;;;;;;;;;;;;;;;14.76;33.45;101344.31;4466808;32;34010;-81
2022/03/19 00:41:45;;;;;;;;;;;;;;;14.89;33.23;101344.69;4460602;32;33178;-81
2022/03/19 00:44:12;;;;;;;;;;;;;;;15.01;33.11;101343.34;4451695;32;34178;-80
2022/03/19 00:46:39;;;;;;;;;;;;;;;14.75;33.49;101339.94;4460859;32;35236;-81
2022/03/19 00:49:06;;;;;;;;;;;;;;;14.31;34.30;101344.63;4467231;32;33851;-80
2022/03/19 00:51:38;;;;;;;;;;;;;;;14.55;34.11;101346.28;4447933;32;32173;-80
2022/03/19 00:54:06;;;;;;;;;;;;;;;14.71;33.89;101342.44;4451577;32;34374;-81
2022/03/19 00:56:33;;;;;;;;;;;;;;;14.50;33.95;101337.41;4460964;32;34335;-80
2022/03/19 00:59:01;;;;;;;;;;;;;;;14.34;34.33;101336.00;4452772;32;33335;-81
2022/03/19 01:01:28;;;;;;;;;;;;;;;14.14;34.64;101332.75;4445612;32;33202;-81
2022/03/19 01:03:55;;;;;;;;;;;;;;;14.40;34.31;101325.78;4451680;32;33907;-81
2022/03/19 01:06:23;;;;;;;;;;;;;;;14.50;34.07;101327.84;4451667;32;34019;-81
2022/03/19 01:08:55;;;;;;;;;;;;;;;14.70;33.78;101325.88;4451574;32;33716;-81
2022/03/19 01:11:23;;;;;;;;;;;;;;;14.69;33.67;101326.69;4440080;32;33461;-82
2022/03/19 01:13:50;;;;;;;;;;;;;;;14.62;33.84;101321.25;4467256;32;33974;-82
2022/03/19 01:16:19;;;;;;;;;;;;;;;14.66;33.87;101323.09;4465168;32;35248;-81
2022/03/19 01:18:46;;;;;;;;;;;;;;;14.54;34.04;101318.41;4452807;32;33950;-82
2022/03/19 01:21:14;;;;;;;;;;;;;;;14.79;33.61;101322.66;4437614;32;32189;-82
2022/03/19 01:23:41;;;;;;;;;;;;;;;14.84;33.50;101329.78;4451225;32;33756;-82
2022/03/19 01:26:09;;;;;;;;;;;;;;;14.29;34.30;101327.16;4453283;32;34192;-82
2022/03/19 01:28:36;;;;;;;;;;;;;;;14.42;34.31;101321.47;4439151;32;33309;-82
2022/03/19 01:31:03;;;;;;;;;;;;;;;14.39;34.31;101323.09;4440066;32;34200;-82
2022/03/19 01:33:30;;;;;;;;;;;;;;;14.58;34.02;101325.47;4468630;32;34018;-82
2022/03/19 01:35:58;;;;;;;;;;;;;;;14.61;34.01;101312.53;4468721;32;34454;-82
2022/03/19 01:38:25;;;;;;;;;;;;;;;14.84;33.58;101313.22;4468443;32;34930;-81
2022/03/19 01:40:53;;;;;;;;;;;;;;;14.86;33.59;101300.22;4444216;32;34060;-82
2022/03/19 01:43:21;;;;;;;;;;;;;;;14.88;33.45;101298.53;4449607;32;34214;-81
2022/03/19 01:45:49;;;;;;;;;;;;;;;14.53;33.60;101290.53;4468573;32;35338;-81
2022/03/19 01:48:16;;;;;;;;;;;;;;;14.44;33.69;101296.34;4454251;32;33417;-82
2022/03/19 01:50:44;;;;;;;;;;;;;;;14.65;33.49;101290.00;4459604;32;34226;-81
2022/03/19 01:53:11;;;;;;;;;;;;;;;14.53;33.46;101291.41;4453033;32;33749;-82
2022/03/19 01:55:39;;;;;;;;;;;;;;;14.70;33.00;101288.41;4453101;32;33815;-81
2022/03/19 01:58:06;;;;;;;;;;;;;;;14.66;33.15;101281.34;4439340;32;34211;-81
2022/03/19 02:00:33;;;;;;;;;;;;;;;14.77;32.88;101285.16;4460393;32;33050;-81
2022/03/19 02:03:01;;;;;;;;;;;;;;;14.57;32.97;101285.44;4468642;32;34912;-81
2022/03/19 02:05:29;;;;;;;;;;;;;;;14.62;32.61;101284.69;4454493;32;34474;-81
2022/03/19 02:07:56;;;;;;;;;;;;;;;14.57;32.64;101280.22;4462821;32;34178;-82
2022/03/19 02:10:24;;;;;;;;;;;;;;;14.49;32.67;101272.97;4452843;32;34150;-81
2022/03/19 02:12:55;;;;;;;;;;;;;;;14.57;32.40;101275.00;4450444;32;33708;-81
2022/03/19 02:15:22;;;;;;;;;;;;;;;14.36;32.65;101266.50;4454525;32;34298;-81
2022/03/19 02:17:50;;;;;;;;;;;;;;;14.29;32.87;101281.06;4448865;32;33588;-81
2022/03/19 02:20:18;;;;;;;;;;;;;;;14.34;32.55;101271.66;4452835;32;33255;-82
2022/03/19 02:25:34;;;;;;;;;;;;;;;14.27;32.57;101268.81;4452691;32;34100;-82
2022/03/19 02:25:35;;;;;;;;;;;;;;;14.21;32.74;101268.63;4438747;32;32541;-82
2022/03/19 02:28:04;;;;;;;;;;;;;;;14.10;32.66;101276.12;4457573;32;34058;-81
2022/03/19 02:30:33;;;;;;;;;;;;;;;14.09;32.54;101272.62;4454186;32;33203;-81
2022/03/19 02:33:00;;;;;;;;;;;;;;;14.01;32.41;101275.78;4452726;32;34201;-82
2022/03/19 02:35:27;;;;;;;;;;;;;;;13.78;32.81;101272.44;4453825;32;34283;-82
2022/03/19 02:37:55;;;;;;;;;;;;;;;13.86;32.64;101273.56;4449474;32;33673;-82
2022/03/19 02:40:22;;;;;;;;;;;;;;;13.81;32.65;101269.94;4452689;32;33182;-81
2022/03/19 02:42:51;;;;;;;;;;;;;;;13.66;32.95;101264.22;4452806;32;34742;-82
2022/03/19 02:45:19;;;;;;;;;;;;;;;13.68;32.85;101267.78;4438629;32;34263;-82
2022/03/19 02:47:59;;;;;;;;;;;;;;;13.69;32.92;101264.31;4441309;32;33859;-81
2022/03/19 02:50:29;;;;;;;;;;;;;;;13.78;32.47;101256.78;4467934;32;33098;-81
2022/03/19 02:52:57;;;;;;;;;;;;;;;13.44;33.25;101255.66;4468265;32;34331;-81
2022/03/19 02:55:24;;;;;;;;;;;;;;;13.55;33.20;101258.62;4454042;32;35295;-80
2022/03/19 02:57:53;;;;;;;;;;;;;;;13.44;33.35;101253.03;4450260;32;34127;-81
2022/03/19 03:00:21;;;;;;;;;;;;;;;13.48;32.99;101254.91;4452832;32;33544;-82
2022/03/19 03:02:48;;;;;;;;;;;;;;;13.41;33.33;101252.97;4452897;32;34228;-80
2022/03/19 03:05:15;;;;;;;;;;;;;;;13.29;33.33;101253.41;4453984;32;34293;-81
2022/03/19 03:07:42;;;;;;;;;;;;;;;13.28;33.52;101255.97;4453914;32;33209;-81
2022/03/19 03:10:10;;;;;;;;;;;;;;;12.94;34.09;101251.22;4468045;32;33342;-81
2022/03/19 03:12:37;;;;;;;;;;;;;;;12.99;34.09;101253.16;4465664;32;34167;-81
2022/03/19 03:15:05;;;;;;;;;;;;;;;13.12;34.04;101252.78;4466105;32;34076;-80
2022/03/19 03:17:33;;;;;;;;;;;;;;;13.03;34.21;101248.94;4467992;32;35164;-80
2022/03/19 03:20:01;;;;;;;;;;;;;;;13.14;34.16;101252.81;4468030;32;34604;-80
2022/03/19 03:22:29;;;;;;;;;;;;;;;13.18;34.20;101243.41;4439533;32;34200;-78
2022/03/19 03:24:57;;;;;;;;;;;;;;;13.20;34.43;101250.44;4437992;32;34178;-81
2022/03/19 03:27:25;;;;;;;;;;;;;;;13.35;34.13;101253.63;4452545;32;34543;-81
2022/03/19 03:29:53;;;;;;;;;;;;;;;13.43;33.90;101253.87;4452326;32;34139;-81
2022/03/19 03:32:20;;;;;;;;;;;;;;;13.53;33.89;101245.56;4465370;32;34831;-80
2022/03/19 03:34:48;;;;;;;;;;;;;;;13.50;34.00;101250.66;4467830;32;34492;-80
2022/03/19 03:37:18;;;;;;;;;;;;;;;13.43;34.17;101247.78;4468013;32;34326;-80
2022/03/19 03:39:45;;;;;;;;;;;;;;;13.44;34.22;101247.84;4467828;32;34287;-80
2022/03/19 03:42:12;;;;;;;;;;;;;;;13.60;33.72;101244.94;4455406;32;34143;-80
2022/03/19 03:44:42;;;;;;;;;;;;;;;13.62;33.80;101243.25;4438130;32;34088;-81
2022/03/19 03:47:09;;;;;;;;;;;;;;;13.56;34.04;101247.37;4452383;32;34266;-80
2022/03/19 03:49:36;;;;;;;;;;;;;;;13.58;33.96;101243.97;4451260;32;33427;-81
2022/03/19 03:52:07;;;;;;;;;;;;;;;13.60;33.76;101250.16;4462710;32;34061;-81
2022/03/19 03:54:34;;;;;;;;;;;;;;;13.69;33.74;101244.34;4453951;32;35330;-81
2022/03/19 03:57:02;;;;;;;;;;;;;;;13.58;33.93;101246.59;4467096;32;34926;-81
2022/03/19 03:59:30;;;;;;;;;;;;;;;13.69;33.84;101252.16;4467810;32;33986;-81
2022/03/19 04:01:57;;;;;;;;;;;;;;;13.56;33.89;101245.69;4445398;32;35018;-81
2022/03/19 04:04:26;;;;;;;;;;;;;;;13.53;33.99;101240.34;4437953;32;35864;-81
2022/03/19 04:06:53;;;;;;;;;;;;;;;13.56;33.99;101247.37;4452216;32;33695;-82
2022/03/19 04:09:20;;;;;;;;;;;;;;;13.62;33.71;101245.84;4460635;32;34350;-81
2022/03/19 04:11:47;;;;;;;;;;;;;;;13.54;33.97;101244.72;4441646;32;33229;-80
2022/03/19 04:14:14;;;;;;;;;;;;;;;13.60;33.89;101239.72;4453576;32;33542;-81
2022/03/19 04:16:41;;;;;;;;;;;;;;;13.54;33.79;101233.41;4467583;32;33749;-80
2022/03/19 04:19:09;;;;;;;;;;;;;;;13.57;33.94;101237.00;4459405;32;33909;-80
2022/03/19 04:21:42;;;;;;;;;;;;;;;13.62;33.97;101232.81;4452136;32;34127;-80
2022/03/19 04:24:10;;;;;;;;;;;;;;;13.54;33.91;101229.09;4452028;32;34537;-79
2022/03/19 04:26:37;;;;;;;;;;;;;;;13.58;34.00;101230.97;4451953;32;34258;-80
2022/03/19 04:29:05;;;;;;;;;;;;;;;13.73;33.65;101229.69;4458791;32;33454;-80
2022/03/19 04:31:32;;;;;;;;;;;;;;;13.45;34.08;101226.19;4452896;32;33937;-80
2022/03/19 04:34:00;;;;;;;;;;;;;;;13.27;34.51;101225.53;4463104;32;35107;-81
2022/03/19 04:36:30;;;;;;;;;;;;;;;13.41;34.25;101228.59;4437662;32;32440;-81
2022/03/19 04:39:02;;;;;;;;;;;;;;;13.45;34.14;101226.19;4443001;32;34158;-80
2022/03/19 04:41:30;;;;;;;;;;;;;;;13.60;34.06;101226.69;4467368;32;35214;-81
2022/03/19 04:43:58;;;;;;;;;;;;;;;13.65;34.12;101226.84;4466953;32;34366;-81
2022/03/19 04:46:25;;;;;;;;;;;;;;;13.76;34.05;101229.81;4467236;32;34964;-82
2022/03/19 04:48:53;;;;;;;;;;;;;;;13.73;34.06;101229.69;4462926;32;34104;-81
2022/03/19 04:51:21;;;;;;;;;;;;;;;13.77;34.04;101235.06;4451631;32;33697;-81
2022/03/19 04:53:51;;;;;;;;;;;;;;;13.66;34.20;101238.16;4412423;32;35044;-81
2022/03/19 04:56:18;;;;;;;;;;;;;;;13.77;34.10;101237.66;4438078;32;33732;-80
2022/03/19 04:58:46;;;;;;;;;;;;;;;13.76;34.28;101245.44;4454204;32;31996;-81
2022/03/19 05:01:16;;;;;;;;;;;;;;;13.72;34.34;101238.38;4451088;32;34204;-81
2022/03/19 05:03:43;;;;;;;;;;;;;;;13.58;34.50;101245.72;4437436;32;34339;-82
2022/03/19 05:06:11;;;;;;;;;;;;;;;13.36;34.91;101239.75;4451310;32;34726;-82
2022/03/19 05:08:38;;;;;;;;;;;;;;;13.44;34.81;101245.22;4453375;32;33498;-82
2022/03/19 05:11:16;;;;;;;;;;;;;;;13.58;34.62;101251.81;4452579;32;34078;-81
2022/03/19 05:13:44;;;;;;;;;;;;;;;13.70;34.50;101250.44;4451441;32;35339;-81
2022/03/19 05:16:12;;;;;;;;;;;;;;;13.63;34.71;101247.63;4451391;32;33760;-82
2022/03/19 05:18:39;;;;;;;;;;;;;;;13.77;34.44;101247.22;4453253;32;33963;-82
2022/03/19 05:21:09;;;;;;;;;;;;;;;13.67;34.60;101246.00;4466895;32;34375;-82
2022/03/19 05:23:36;;;;;;;;;;;;;;;13.24;35.09;101246.28;4467138;32;35220;-82
2022/03/19 05:26:03;;;;;;;;;;;;;;;13.85;34.15;101248.34;4466210;32;35085;-82
2022/03/19 05:28:31;;;;;;;;;;;;;;;13.84;34.49;101244.84;4451296;32;33369;-81
2022/03/19 05:31:18;;;;;;;;;;;;;;;13.74;34.69;101249.72;4439148;32;34993;-82
2022/03/19 05:36:32;;;;;;;;;;;;;;;13.68;34.75;101247.81;4465629;32;33944;-81
2022/03/19 05:38:59;;;;;;;;;;;;;;;13.81;34.52;101244.75;4448417;32;34135;-81
2022/03/19 05:41:27;;;;;;;;;;;;;;;13.86;34.49;101253.63;4436812;32;33621;-81
2022/03/19 05:43:55;;;;;;;;;;;;;;;13.82;34.33;101250.84;4450768;32;34482;-81
2022/03/19 05:46:23;;;;;;;;;;;;;;;13.65;34.70;101241.59;4450864;32;34936;-80
2022/03/19 05:48:50;;;;;;;;;;;;;;;13.81;34.45;101238.66;4453123;32;34240;-79
2022/03/19 05:51:17;;;;;;;;;;;;;;;13.00;35.38;101238.44;4436567;32;35054;-80
2022/03/19 05:53:44;;;;;;;;;;;;;;;13.43;34.89;101233.03;4450767;32;34172;-81
2022/03/19 05:56:11;;;;;;;;;;;;;;;13.49;34.81;101241.09;4454908;32;34750;-81
2022/03/19 05:58:40;;;;;;;;;;;;;;;13.79;34.60;101240.34;4466217;32;34535;-81
2022/03/19 06:01:07;;;;;;;;;;;;;;;14.12;34.18;101245.72;4452040;32;34936;-80
2022/03/19 06:03:35;;;;;;;;;;;;;;;13.74;34.32;101241.88;4465961;32;34202;-81
2022/03/19 06:06:03;;;;;;;;;;;;;;;12.84;35.89;101248.31;4462633;32;33949;-82
2022/03/19 06:08:31;;;;;;;;;;;;;;;12.05;37.67;101255.66;4451544;32;34133;-81
2022/03/19 06:10:58;;;;;;;;;;;;;;;12.65;36.72;101249.34;4450525;32;34218;-82
2022/03/19 06:13:26;;;;;;;;;;;;;;;12.95;36.19;101259.09;4452831;32;34148;-81
2022/03/19 06:15:53;;;;;;;;;;;;;;;12.37;37.16;101259.50;4452880;32;34460;-83
2022/03/19 06:18:21;;;;;;;;;;;;;;;12.87;36.39;101257.91;4459488;32;33517;-82
2022/03/19 06:20:48;;;;;;;;;;;;;;;12.14;37.72;101256.00;4468270;32;33742;-82
2022/03/19 06:23:15;;;;;;;;;;;;;;;11.79;38.22;101264.94;4468704;32;34130;-82
2022/03/19 06:25:42;;;;;;;;;;;;;;;11.53;39.18;101267.31;4468644;32;34904;-82
2022/03/19 06:28:10;;;;;;;;;;;;;;;11.52;39.64;101262.97;4462125;32;33077;-82
2022/03/19 06:30:39;;;;;;;;;;;;;;;12.00;38.46;101265.84;4452758;32;34216;-82
2022/03/19 06:33:07;;;;;;;;;;;;;;;11.20;39.67;101270.22;4455668;32;34478;-81
2022/03/19 06:38:24;;;;;;;;;;;;;;;11.71;38.44;101275.03;4449138;32;33274;-82
2022/03/19 06:40:53;;;;;;;;;;;;;;;9.17;44.13;101279.47;4438734;32;35109;-82
2022/03/19 06:43:21;;;;;;;;;;;;;;;9.21;44.31;101272.78;4425979;32;33483;-82
2022/03/19 06:45:49;;;;;;;;;;;;;;;8.67;45.62;101274.19;4461458;32;34919;-81
2022/03/19 06:48:16;;;;;;;;;;;;;;;10.14;41.96;101272.25;4467850;32;33465;-83
2022/03/19 06:50:43;;;;;;;;;;;;;;;10.55;41.17;101272.47;4468200;32;34802;-80
2022/03/19 06:53:11;;;;;;;;;;;;;;;11.29;39.08;101274.97;4468277;32;34136;-82
2022/03/19 06:55:38;;;;;;;;;;;;;;;11.65;38.58;101270.44;4467200;32;33968;-80
2022/03/19 06:58:05;;;;;;;;;;;;;;;11.89;37.70;101265.44;4453693;32;32574;-80
2022/03/19 07:00:33;;;;;;;;;;;;;;;10.61;39.39;101268.47;4466451;32;33913;-78
2022/03/19 07:03:00;;;;;;;;;;;;;;;9.77;41.20;101273.84;4438954;32;35181;-81
2022/03/19 07:05:28;;;;;;;;;;;;;;;8.55;43.46;101284.75;4438571;32;34299;-80
2022/03/19 07:07:55;;;;;;;;;;;;;;;8.92;42.77;101284.16;4444869;32;34121;-80
2022/03/19 07:10:23;;;;;;;;;;;;;;;8.04;43.31;101283.63;4439708;32;34231;-79
2022/03/19 07:12:51;;;;;;;;;;;;;;;8.41;42.58;101285.69;4452226;32;35193;-80
2022/03/19 07:15:19;;;;;;;;;;;;;;;8.41;42.17;101276.28;4438366;32;33840;-82
2022/03/19 07:17:48;;;;;;;;;;;;;;;8.37;40.76;101287.25;4438979;32;32928;-80
2022/03/19 07:20:15;;;;;;;;;;;;;;;8.84;39.90;101280.28;4452270;32;34328;-81
2022/03/19 07:22:45;;;;;;;;;;;;;;;8.97;38.98;101282.69;4452270;32;33910;-82
2022/03/19 07:25:13;;;;;;;;;;;;;;;9.80;36.85;101280.06;4467768;32;34759;-80
2022/03/19 07:27:40;;;;;;;;;;;;;;;9.38;37.50;101279.69;4442661;32;33178;-80
2022/03/19 07:30:08;;;;;;;;;;;;;;;9.98;35.90;101280.09;4463233;32;35051;-81
2022/03/19 07:32:35;;;;;;;;;;;;;;;11.26;34.32;101271.34;4452274;32;34184;-82
2022/03/19 07:35:02;;;;;;;;;;;;;;;10.77;34.91;101280.41;4438440;32;34889;-83
2022/03/19 07:37:30;;;;;;;;;;;;;;;9.73;35.92;101281.47;4441269;32;34135;-83
2022/03/19 07:39:58;;;;;;;;;;;;;;;10.14;35.88;101287.78;4441019;32;33592;-82
2022/03/19 07:42:25;;;;;;;;;;;;;;;10.19;35.77;101275.97;4463122;32;34389;-81
2022/03/19 07:44:53;;;;;;;;;;;;;;;10.10;35.57;101280.69;4451573;32;33871;-82
2022/03/19 07:47:20;;;;;;;;;;;;;;;9.36;37.09;101283.03;4464882;32;33539;-81
2022/03/19 07:49:48;;;;;;;;;;;;;;;10.17;35.88;101280.16;4465702;32;34267;-82
2022/03/19 07:52:15;;;;;;;;;;;;;;;11.05;34.32;101279.06;4438546;32;34233;-82
2022/03/19 07:54:42;;;;;;;;;;;;;;;10.56;34.58;101288.09;4452792;32;34850;-81
2022/03/19 07:57:11;;;;;;;;;;;;;;;10.52;35.11;101280.97;4470583;32;33148;-81
2022/03/19 07:59:38;;;;;;;;;;;;;;;10.89;33.66;101290.47;4467155;32;33705;-80
2022/03/19 08:02:05;;;;;;;;;;;;;;;11.07;34.41;101293.91;4440402;32;33990;-81
2022/03/19 08:04:33;;;;;;;;;;;;;;;12.02;32.78;101287.59;4452529;32;34543;-82
2022/03/19 08:07:00;;;;;;;;;;;;;;;11.94;32.49;101291.59;4452247;32;32903;-82
2022/03/19 08:09:27;;;;;;;;;;;;;;;10.88;34.64;101291.28;4452316;32;34155;-81
2022/03/19 08:11:55;;;;;;;;;;;;;;;9.56;36.37;101305.63;4466534;32;33745;-81
2022/03/19 08:14:22;;;;;;;;;;;;;;;10.22;36.12;101296.81;4453739;32;33671;-82
2022/03/19 08:16:49;;;;;;;;;;;;;;;11.44;34.21;101293.81;4453657;32;33178;-82
2022/03/19 08:19:19;;;;;;;;;;;;;;;11.86;33.55;101295.59;4461244;32;33944;-82
2022/03/19 08:21:46;;;;;;;;;;;;;;;11.50;33.85;101295.75;4453480;32;35015;-82
2022/03/19 08:24:13;;;;;;;;;;;;;;;11.86;33.10;101295.59;4452572;32;35004;-82
2022/03/19 08:26:40;;;;;;;;;;;;;;;11.58;34.16;101291.78;4452153;32;33459;-79
2022/03/19 08:29:07;;;;;;;;;;;;;;;11.07;34.76;101293.91;4451762;32;35067;-80
2022/03/19 08:31:34;;;;;;;;;;;;;;;10.81;34.97;101294.41;4452348;32;35245;-79
2022/03/19 08:34:02;;;;;;;;;;;;;;;10.45;35.61;101291.88;4454930;32;35578;-83
2022/03/19 08:36:29;;;;;;;;;;;;;;;10.18;36.32;101291.41;4451871;32;34296;-82
2022/03/19 08:41:42;;;;;;;;;;;;;;;10.58;35.77;101301.16;4455244;32;34703;-80
2022/03/19 08:44:09;;;;;;;;;;;;;;;10.18;36.09;101296.59;4467203;32;34850;-80
2022/03/19 08:46:37;;;;;;;;;;;;;;;10.67;35.58;101292.06;4455531;32;33335;-79
2022/03/19 08:49:05;;;;;;;;;;;;;;;11.26;34.61;101294.72;4437458;32;34369;-82
2022/03/19 08:51:41;;;;;;;;;;;;;;;11.91;33.74;101294.94;4451586;32;35258;-82
2022/03/19 08:54:10;;;;;;;;;;;;;;;10.73;34.49;101290.59;4439584;32;34816;-79
2022/03/19 08:56:38;;;;;;;;;;;;;;;10.42;36.46;101304.72;4456822;32;33205;-84
2022/03/19 08:59:05;;;;;;;;;;;;;;;11.47;34.29;101299.94;4452545;32;34676;-78
2022/03/19 09:01:32;;;;;;;;;;;;;;;12.08;33.35;101294.75;4454204;32;35422;-79
2022/03/19 09:04:00;;;;;;;;;;;;;;;10.71;35.19;101293.97;4454799;32;34883;-83
2022/03/19 09:06:27;;;;;;;;;;;;;;;10.10;36.35;101296.22;4444249;32;32418;-77
2022/03/19 09:08:54;;;;;;;;;;;;;;;11.06;35.18;101286.03;4466098;32;34589;-78
2022/03/19 09:11:23;;;;;;;;;;;;;;;10.81;34.95;101297.03;4466623;32;35571;-79
2022/03/19 09:13:51;;;;;;;;;;;;;;;12.19;33.42;101293.47;4466983;32;33874;-78
2022/03/19 09:16:21;;;;;;;;;;;;;;;11.42;34.24;101286.75;4460517;32;33293;-77
2022/03/19 09:18:51;;;;;;;;;;;;;;;11.63;35.06;101294.56;4452283;32;33372;-84
2022/03/19 09:21:18;;;;;;;;;;;;;;;12.42;32.74;101291.78;4449265;32;34911;-78
2022/03/19 09:23:45;;;;;;;;;;;;;;;12.38;31.80;101287.28;4452219;32;32281;-83
2022/03/19 09:26:13;;;;;;;;;;;;;;;13.35;31.28;101284.00;4452360;32;33993;-81
2022/03/19 09:28:40;;;;;;;;;;;;;;;12.13;32.90;101288.03;4466474;32;34673;-85
2022/03/19 09:31:07;;;;;;;;;;;;;;;11.32;34.13;101289.78;4462642;32;35304;-79
2022/03/19 09:33:35;;;;;;;;;;;;;;;11.88;33.50;101286.12;4452144;32;33236;-84
2022/03/19 09:36:02;;;;;;;;;;;;;;;12.64;31.77;101281.37;4466418;32;34242;-83
2022/03/19 09:38:33;;;;;;;;;;;;;;;12.51;31.54;101288.66;4462930;32;34715;-79
2022/03/19 09:41:00;;;;;;;;;;;;;;;12.52;31.45;101280.91;4466329;32;34097;-83
2022/03/19 09:43:28;;;;;;;;;;;;;;;12.39;31.30;101286.47;4452356;32;34941;-79
2022/03/19 09:45:55;;;;;;;;;;;;;;;12.24;32.10;101293.69;4466312;32;33322;-83
2022/03/19 09:48:23;;;;;;;;;;;;;;;12.00;32.42;101284.03;4448572;32;33871;-80
2022/03/19 09:50:51;;;;;;;;;;;;;;;11.19;32.71;101289.25;4464347;32;34567;-79
2022/03/19 09:53:23;;;;;;;;;;;;;;;11.20;33.17;101285.81;4444492;32;34736;-80
2022/03/19 09:55:53;;;;;;;;;;;;;;;11.09;33.75;101292.25;4464061;32;34355;-79
2022/03/19 09:58:20;;;;;;;;;;;;;;;11.54;32.32;101294.19;4439317;32;34199;-79
2022/03/19 10:00:47;;;;;;;;;;;;;;;11.24;32.29;101285.94;4446074;32;34200;-79
2022/03/19 10:03:15;;;;;;;;;;;;;;;11.46;31.97;101291.25;4471309;32;34379;-78
2022/03/19 10:08:39;;;;;;;;;;;;;;;12.07;31.11;101288.66;4472609;32;32820;-80
2022/03/19 10:11:10;;;;;;;;;;;;;;;12.07;31.00;101282.56;4439098;32;35119;-84
2022/03/19 10:13:38;;;;;;;;;;;;;;;11.43;32.90;101286.81;4450347;32;33959;-80
2022/03/19 10:16:05;;;;;;;;;;;;;;;11.75;32.81;101291.63;4468145;32;34203;-80
2022/03/19 10:18:33;;;;;;;;;;;;;;;11.64;32.63;101280.78;4454007;32;33965;-80
2022/03/19 10:21:01;;;;;;;;;;;;;;;11.67;32.59;101273.13;4468187;32;34321;-79
2022/03/19 10:23:39;;;;;;;;;;;;;;;12.61;31.30;101263.06;4471001;32;33663;-78
2022/03/19 10:26:07;;;;;;;;;;;;;;;12.90;31.23;101268.44;4468094;32;33099;-79
2022/03/19 10:28:36;;;;;;;;;;;;;;;13.07;31.02;101272.56;4454090;32;33978;-79
2022/03/19 10:31:03;;;;;;;;;;;;;;;13.22;30.66;101266.12;4459710;32;34352;-79
2022/03/19 10:33:31;;;;;;;;;;;;;;;14.11;29.00;101264.84;4438625;32;34817;-81
2022/03/19 10:36:08;;;;;;;;;;;;;;;13.07;29.94;101259.56;4453840;32;34249;-79
2022/03/19 10:38:42;;;;;;;;;;;;;;;13.39;29.88;101262.44;4438752;32;32633;-80
2022/03/19 10:41:10;;;;;;;;;;;;;;;12.70;30.94;101261.63;4438418;32;33774;-84
2022/03/19 10:43:37;;;;;;;;;;;;;;;14.05;29.05;101252.50;4442179;32;34321;-85
2022/03/19 10:46:05;;;;;;;;;;;;;;;13.78;28.90;101262.88;4438411;32;33772;-79
2022/03/19 10:48:33;;;;;;;;;;;;;;;14.20;28.30;101251.19;4438467;32;35076;-79
2022/03/19 10:51:02;;;;;;;;;;;;;;;13.11;29.71;101260.56;4438326;32;34536;-80
2022/03/19 10:53:33;;;;;;;;;;;;;;;13.77;29.07;101247.22;4452598;32;34870;-81
2022/03/19 10:56:01;;;;;;;;;;;;;;;14.30;28.17;101240.22;4465949;32;33461;-82
2022/03/19 10:58:28;;;;;;;;;;;;;;;13.47;28.87;101250.56;4462657;32;35130;-84
2022/03/19 11:01:05;;;;;;;;;;;;;;;13.11;29.37;101245.81;4440127;32;34222;-78
2022/03/19 11:03:34;;;;;;;;;;;;;;;13.26;29.00;101241.97;4462646;32;34182;-79
2022/03/19 11:06:05;;;;;;;;;;;;;;;13.11;29.05;101243.19;4467646;32;32849;-78
2022/03/19 11:08:39;;;;;;;;;;;;;;;12.76;29.45;101234.09;4458264;32;34871;-81
2022/03/19 11:11:16;;;;;;;;;;;;;;;13.01;28.79;101225.47;4440701;32;34614;-81
2022/03/19 11:13:48;;;;;;;;;;;;;;;12.57;29.25;101227.31;4456078;32;33666;-84
2022/03/19 11:16:16;;;;;;;;;;;;;;;13.35;28.09;101221.47;4454181;32;33495;-79
2022/03/19 11:18:44;;;;;;;;;;;;;;;13.40;27.19;101219.91;4452554;32;35121;-82
2022/03/19 11:21:14;;;;;;;;;;;;;;;13.38;27.44;101218.97;4442384;32;35104;-82
2022/03/19 11:23:45;;;;;;;;;;;;;;;13.17;26.69;101213.00;4438558;32;33723;-78
2022/03/19 11:26:13;;;;;;;;;;;;;;;13.93;26.33;101210.34;4447135;32;33335;-79
2022/03/19 11:28:40;;;;;;;;;;;;;;;13.50;26.54;101210.69;4455866;32;34071;-81
2022/03/19 11:31:09;;;;;;;;;;;;;;;13.19;26.50;101203.53;4437824;32;34094;-79
2022/03/19 11:33:36;;;;;;;;;;;;;;;14.89;24.46;101186.28;4452124;32;34071;-81
2022/03/19 11:36:05;;;;;;;;;;;;;;;13.77;24.36;101206.37;4455221;32;33374;-83
2022/03/19 11:38:34;;;;;;;;;;;;;;;14.03;24.64;101188.06;4448645;32;34207;-79
2022/03/19 11:41:03;;;;;;;;;;;;;;;14.52;24.48;101185.25;4452889;32;34443;-83
2022/03/19 11:43:30;;;;;;;;;;;;;;;14.33;23.77;101175.09;4442256;32;33892;-82
2022/03/19 11:46:04;;;;;;;;;;;;;;;13.62;25.01;101183.31;4465335;32;32559;-80
2022/03/19 11:48:35;;;;;;;;;;;;;;;14.23;24.68;101179.13;4466331;32;33937;-80
2022/03/19 11:51:12;;;;;;;;;;;;;;;13.81;24.66;101179.56;4467421;32;34525;-80
2022/03/19 11:53:59;;;;;;;;;;;;;;;14.25;23.83;101174.84;4466961;32;34929;-80
2022/03/19 11:56:27;;;;;;;;;;;;;;;14.52;24.14;101169.59;4467426;32;33090;-79
2022/03/19 11:58:55;;;;;;;;;;;;;;;15.37;24.25;101164.00;4457358;32;33912;-84
2022/03/19 12:01:44;;;;;;;;;;;;;;;14.80;24.79;101163.41;4462417;32;35403;-80
2022/03/19 12:04:12;;;;;;;;;;;;;;;14.05;25.13;101174.25;4456589;32;34461;-83
2022/03/19 12:06:48;;;;;;;;;;;;;;;14.30;24.96;101161.94;4463274;32;34265;-80
2022/03/19 12:09:16;;;;;;;;;;;;;;;13.92;25.17;101169.47;4464579;32;34610;-81
2022/03/19 12:12:03;;;;;;;;;;;;;;;15.04;24.16;101160.59;4458995;32;35077;-85
2022/03/19 12:14:30;;;;;;;;;;;;;;;15.01;24.22;101160.50;4463910;32;32772;-80
2022/03/19 12:17:13;;;;;;;;;;;;;;;15.98;22.33;101153.31;4464143;32;34040;-80
2022/03/19 12:20:01;;;;;;;;;;;;;;;14.72;22.79;101164.03;4457470;32;33701;-80
2022/03/19 12:22:29;;;;;;;;;;;;;;;14.28;23.02;101161.00;4453370;32;33527;-80
2022/03/19 12:25:01;;;;;;;;;;;;;;;14.39;22.56;101154.38;4453605;32;33777;-80
2022/03/19 12:27:28;;;;;;;;;;;;;;;13.83;23.10;101161.38;4467578;32;34109;-80
2022/03/19 12:29:57;;;;;;;;;;;;;;;13.66;23.84;101158.22;4462352;32;34953;-84
2022/03/19 12:32:25;;;;;;;;;;;;;;;13.62;24.40;101154.63;4457407;32;33750;-79
2022/03/19 12:34:58;;;;;;;;;;;;;;;14.51;23.38;101157.38;4452092;32;33973;-80
2022/03/19 12:37:26;;;;;;;;;;;;;;;14.65;22.59;101154.25;4440261;32;33210;-83
2022/03/19 12:39:57;;;;;;;;;;;;;;;14.88;22.63;101157.50;4458114;32;33945;-81
2022/03/19 12:42:30;;;;;;;;;;;;;;;14.03;23.21;101154.19;4457224;32;34097;-80
2022/03/19 12:45:03;;;;;;;;;;;;;;;14.57;22.74;101151.44;4449109;32;33930;-79
2022/03/19 12:47:31;;;;;;;;;;;;;;;13.97;24.03;101147.03;4452944;32;33468;-87
2022/03/19 12:49:59;;;;;;;;;;;;;;;14.93;22.71;101148.09;4456808;32;34199;-81
2022/03/19 12:52:27;;;;;;;;;;;;;;;14.89;22.97;101144.50;4440463;32;34447;-87
2022/03/19 12:54:58;;;;;;;;;;;;;;;14.88;22.77;101142.72;4451892;32;35045;-80